EGCC/MAN METAR and TAF weather

Enter ICAO airport designator
Station Type Date Time Source
EGCC METAR 2019/02/21 00:20 UTC NOAA

EGCC 210020Z AUTO 18006KT 140V230 9999 OVC017 10/07 Q1018 NOSIG


Station Type Date Time Source
EGCC Decoded METAR 2019/02/21 00:20 UTC NOAA

Manchester Airport, United Kingdom (EGCC) 53-21N 002-17W 0M
Feb 20, 2019 - 07:20 PM EST / 2019.02.21 0020 UTC
Wind: from the S (180 degrees) at 7 MPH (6 KT) (direction variable):0
Visibility: greater than 7 mile(s):0
Sky conditions: overcast
Temperature: 50 F (10 C)
Dew Point: 44 F (7 C)
Relative Humidity: 81%
Pressure (altimeter): 30.06 in. Hg (1018 hPa)
ob: EGCC 210020Z AUTO 18006KT 140V230 9999 OVC017 10/07 Q1018 NOSIG
cycle: 0

Station Type Date Time Source
EGCC TAF 2019/02/20 18:06 UTC NOAA

TAF EGCC 201656Z 2018/2124 19009KT 9999 SCT020 BKN025
TEMPO 2018/2112 BKN014 PROB30
TEMPO 2018/2109 9000 -RA BKN008 PROB30 2121/2124 5000 BR


Example: see airport list